KLAS/LAS METAR and TAF weather

Enter ICAO airport designator
Station Type Date Time Source
KLAS METAR 2021/04/13 22:56 UTC NOAA

KLAS 132256Z 23022G33KT 10SM CLR 28/M06 A2953 RMK AO2 PK WND 23033/2255 SLP978 T02831056


Station Type Date Time Source
KLAS Decoded METAR 2021/04/13 22:56 UTC NOAA

MCCARRAN INTERNATIONAL AIRPORT , NV, United States (KLAS) 36-07N 115-16W 636M
Apr 13, 2021 - 06:56 PM EDT / 2021.04.13 2256 UTC
Wind: from the SW (230 degrees) at 25 MPH (22 KT) gusting to 38 MPH (33 KT):0
Visibility: 10 mile(s):0
Sky conditions: clear
Temperature: 82.9 F (28.3 C)
Dew Point: 21.9 F (-5.6 C)
Relative Humidity: 10%
Pressure (altimeter): 29.53 in. Hg (1000 hPa)
ob: KLAS 132256Z 23022G33KT 10SM CLR 28/M06 A2953 RMK AO2 PK WND 23033/2255 SLP978 T02831056
cycle: 23

Station Type Date Time Source
KLAS TAF 2021/04/13 21:51 UTC NOAA

TAF
AMD KLAS 132049Z 1321/1424 21015G25KT P6SM SKC
FM132300 22025G40KT 6SM BLDU SKC
FM140600 21018G26KT P6SM SKC
FM141100 23011KT P6SM SKC
FM141500 31007KT P6SM SKC

Example: see airport list